Time;durP1;ratioP1;P1;durP2;ratioP2;P2;SDS_P1;SDS_P2;PMS_P1;PMS_P2;Temp;Humidity;BMP_temperature;BMP_pressure;BME280_temperature;BME280_humidity;BME280_pressure;Samples;Min_cycle;Max_cycle;Signal;HPM_P1;HPM_P2
2023/06/17 00:01:17;;;;;;;4.90;1.55;;;;;;;17.92;100.00;101228.53;5029941;28;20574;-75
2023/06/17 00:03:44;;;;;;;6.07;1.77;;;;;;;17.83;100.00;101239.66;5028175;28;20529;-75
2023/06/17 00:06:11;;;;;;;4.30;1.38;;;;;;;17.82;100.00;101228.19;5028626;28;20053;-75
2023/06/17 00:08:38;;;;;;;6.85;1.80;;;;;;;17.63;100.00;101214.34;5014646;28;20088;-75
2023/06/17 00:11:05;;;;;;;6.13;2.20;;;;;;;17.46;100.00;101223.28;5019145;28;20060;-75
2023/06/17 00:13:32;;;;;;;5.75;1.95;;;;;;;17.53;100.00;101237.88;5010490;28;20722;-75
2023/06/17 00:16:00;;;;;;;4.25;1.73;;;;;;;17.55;100.00;101230.69;5024490;28;20104;-75
2023/06/17 00:18:28;;;;;;;4.28;1.75;;;;;;;17.57;100.00;101230.59;5030142;28;20054;-75
2023/06/17 00:20:57;;;;;;;5.53;1.83;;;;;;;17.54;100.00;101233.41;5023771;28;20092;-75
2023/06/17 00:23:25;;;;;;;4.38;1.60;;;;;;;17.50;100.00;101219.50;5015168;28;20053;-75
2023/06/17 00:25:52;;;;;;;4.90;1.73;;;;;;;17.61;100.00;101232.13;5022402;28;20065;-75
2023/06/17 00:28:18;;;;;;;6.18;1.90;;;;;;;17.61;100.00;101219.72;5014451;28;20056;-75
2023/06/17 00:30:46;;;;;;;4.13;1.55;;;;;;;17.53;100.00;101224.63;5019547;28;20053;-75
2023/06/17 00:33:13;;;;;;;4.38;1.50;;;;;;;17.50;100.00;101219.50;5024355;28;20053;-75
2023/06/17 00:35:41;;;;;;;5.60;1.98;;;;;;;17.40;100.00;101216.53;5025397;28;20398;-75
2023/06/17 00:38:07;;;;;;;4.07;1.63;;;;;;;17.33;100.00;101211.72;5020238;28;20126;-75
2023/06/17 00:40:34;;;;;;;5.07;1.90;;;;;;;17.25;100.00;101199.78;5016490;28;20056;-75
2023/06/17 00:43:01;;;;;;;4.82;1.73;;;;;;;17.38;100.00;101205.19;5010261;28;20046;-75
2023/06/17 00:45:27;;;;;;;6.65;2.20;;;;;;;17.34;100.00;101201.03;5015389;28;20042;-75
2023/06/17 00:47:55;;;;;;;6.93;2.17;;;;;;;17.32;100.00;101202.09;5029649;28;20145;-76
2023/06/17 00:50:22;;;;;;;5.18;1.65;;;;;;;17.38;100.00;101201.72;5028373;28;20167;-75
2023/06/17 00:52:52;;;;;;;4.90;1.80;;;;;;;17.30;100.00;101204.81;5015523;28;20519;-75
2023/06/17 00:55:21;;;;;;;5.93;1.95;;;;;;;17.20;100.00;101191.25;5020341;28;20129;-75
2023/06/17 00:57:48;;;;;;;5.28;1.67;;;;;;;17.18;100.00;101194.94;5022914;28;20449;-76
2023/06/17 01:00:15;;;;;;;6.90;2.10;;;;;;;17.11;100.00;101191.78;5023854;28;20145;-75
2023/06/17 01:02:44;;;;;;;5.22;2.00;;;;;;;16.98;100.00;101175.78;5010235;28;20045;-74
2023/06/17 01:05:16;;;;;;;7.80;2.38;;;;;;;16.99;100.00;101190.69;5023553;28;20502;-75
2023/06/17 01:07:50;;;;;;;6.10;1.85;;;;;;;16.96;100.00;101192.66;5018302;28;20062;-75
2023/06/17 01:10:28;;;;;;;7.00;2.10;;;;;;;16.91;100.00;101192.94;5024891;28;20060;-75
2023/06/17 01:12:57;;;;;;;5.20;1.83;;;;;;;16.85;100.00;101178.25;5022187;28;20085;-75
2023/06/17 01:15:24;;;;;;;4.15;1.70;;;;;;;16.96;100.00;101184.72;5028624;28;20045;-75
2023/06/17 01:17:54;;;;;;;4.63;1.70;;;;;;;17.01;100.00;101175.59;5034077;28;20064;-75
2023/06/17 01:20:22;;;;;;;6.18;1.95;;;;;;;16.92;100.00;101172.63;5022910;28;20492;-75
2023/06/17 01:22:52;;;;;;;5.70;1.90;;;;;;;16.73;100.00;101176.28;5013104;28;20067;-75
2023/06/17 01:25:20;;;;;;;4.82;1.70;;;;;;;16.73;100.00;101170.13;5029039;28;20136;-75
2023/06/17 01:27:54;;;;;;;8.07;2.33;;;;;;;16.67;100.00;101169.53;5024811;28;20049;-75
2023/06/17 01:30:21;;;;;;;4.78;1.80;;;;;;;16.82;100.00;101177.53;5014031;28;20443;-75
2023/06/17 01:32:48;;;;;;;4.55;1.60;;;;;;;16.80;100.00;101169.72;5014409;28;20077;-75
2023/06/17 01:35:16;;;;;;;4.97;1.70;;;;;;;16.84;100.00;101170.44;5029145;28;20053;-75
2023/06/17 01:37:45;;;;;;;7.10;1.95;;;;;;;16.87;100.00;101178.16;5019791;28;20046;-75
2023/06/17 01:40:14;;;;;;;5.88;2.10;;;;;;;16.81;100.00;101162.63;5033059;28;20093;-75
2023/06/17 01:42:49;;;;;;;5.65;1.95;;;;;;;16.68;100.00;101159.84;5017383;28;20127;-75
2023/06/17 01:45:15;;;;;;;5.65;1.80;;;;;;;16.61;100.00;101151.41;5029223;28;20581;-75
2023/06/17 01:47:42;;;;;;;5.32;1.90;;;;;;;16.64;100.00;101151.22;5029100;28;20050;-75
2023/06/17 01:50:10;;;;;;;5.55;2.00;;;;;;;16.63;100.00;101154.81;5013575;28;20049;-76
2023/06/17 01:52:37;;;;;;;5.88;1.88;;;;;;;16.55;100.00;101140.31;5028672;28;20154;-75
2023/06/17 01:55:04;;;;;;;7.38;1.80;;;;;;;16.54;100.00;101146.53;5020149;28;20388;-75
2023/06/17 01:57:31;;;;;;;4.53;1.50;;;;;;;16.55;100.00;101142.94;5030884;28;20132;-75
2023/06/17 01:59:58;;;;;;;4.15;1.52;;;;;;;16.51;100.00;101139.63;5028412;28;20401;-75
2023/06/17 02:02:25;;;;;;;6.03;1.75;;;;;;;16.45;100.00;101127.63;5015352;28;20054;-75
2023/06/17 02:04:52;;;;;;;5.47;1.88;;;;;;;16.46;100.00;101133.75;5023676;28;20479;-74
2023/06/17 02:07:18;;;;;;;4.65;1.63;;;;;;;16.40;100.00;101121.72;5035899;28;20049;-75
2023/06/17 02:09:45;;;;;;;7.00;2.22;;;;;;;16.30;100.00;101136.38;5018894;28;20085;-75
2023/06/17 02:12:12;;;;;;;5.95;1.95;;;;;;;16.16;100.00;101115.16;5019725;28;20045;-75
2023/06/17 02:14:39;;;;;;;5.93;1.75;;;;;;;16.22;100.00;101115.69;5030492;28;20076;-75
2023/06/17 02:17:08;;;;;;;6.28;1.90;;;;;;;16.10;100.00;101126.94;5015440;28;20180;-75
2023/06/17 02:19:35;;;;;;;5.78;1.70;;;;;;;16.09;100.00;101130.50;5013070;28;20124;-75
2023/06/17 02:22:02;;;;;;;5.80;1.65;;;;;;;16.20;100.00;101129.91;5014514;28;20460;-75
2023/06/17 02:24:29;;;;;;;4.97;1.67;;;;;;;16.27;100.00;101129.50;5010895;28;20054;-75
2023/06/17 02:26:57;;;;;;;4.43;1.58;;;;;;;16.28;100.00;101114.50;5019077;28;20052;-75
2023/06/17 02:29:25;;;;;;;5.85;1.88;;;;;;;16.24;100.00;101120.88;5012743;28;20487;-75
2023/06/17 02:31:52;;;;;;;4.55;1.65;;;;;;;16.18;100.00;101119.41;5019357;28;20055;-75
2023/06/17 02:34:19;;;;;;;5.82;1.90;;;;;;;16.06;100.00;101117.44;5024690;28;20045;-74
2023/06/17 02:36:46;;;;;;;5.30;1.85;;;;;;;15.89;100.00;101110.44;5026805;28;20045;-75
2023/06/17 02:39:13;;;;;;;4.68;1.83;;;;;;;15.99;100.00;101119.59;5024201;28;20056;-75
2023/06/17 02:41:41;;;;;;;5.35;1.83;;;;;;;16.03;100.00;101110.56;5031158;28;20156;-75
2023/06/17 02:44:08;;;;;;;7.13;2.33;;;;;;;16.04;100.00;101109.63;5020242;28;20041;-75
2023/06/17 02:46:35;;;;;;;5.63;2.15;;;;;;;15.93;100.00;101111.97;5025370;28;20095;-75
2023/06/17 02:49:01;;;;;;;4.80;1.50;;;;;;;15.94;100.00;101113.69;5039381;28;20056;-75
2023/06/17 02:51:29;;;;;;;4.95;1.77;;;;;;;15.87;100.00;101110.53;5034974;28;20148;-76
2023/06/17 02:53:55;;;;;;;4.63;1.67;;;;;;;15.95;100.00;101110.09;5024994;28;20069;-74
2023/06/17 02:56:22;;;;;;;12.02;2.08;;;;;;;15.94;100.00;101111.91;5027553;28;20413;-75
2023/06/17 02:58:50;;;;;;;7.10;1.67;;;;;;;15.90;100.00;101120.94;5045844;28;20075;-75
2023/06/17 03:01:17;;;;;;;6.53;1.63;;;;;;;15.57;100.00;101099.78;5050309;28;20083;-74
2023/06/17 03:03:44;;;;;;;5.60;2.00;;;;;;;15.52;100.00;101105.28;5038492;28;20115;-75
2023/06/17 03:06:13;;;;;;;4.95;1.80;;;;;;;15.54;100.00;101115.78;5022757;28;20052;-75
2023/06/17 03:08:40;;;;;;;4.75;1.80;;;;;;;15.56;100.00;101116.53;5043510;28;20564;-75
2023/06/17 03:11:07;;;;;;;6.30;2.17;;;;;;;15.42;100.00;101116.41;5039633;28;20399;-74
2023/06/17 03:13:34;;;;;;;5.75;1.75;;;;;;;15.37;100.00;101101.69;5047145;28;20404;-75
2023/06/17 03:16:05;;;;;;;5.25;1.90;;;;;;;15.38;100.00;101121.00;5047672;28;20057;-75
2023/06/17 03:18:32;;;;;;;5.72;1.90;;;;;;;15.33;100.00;101112.47;5041632;28;20083;-75
2023/06/17 03:20:59;;;;;;;6.63;2.17;;;;;;;15.21;100.00;101111.31;5039102;28;20092;-75
2023/06/17 03:23:26;;;;;;;4.25;1.70;;;;;;;14.93;100.00;101117.97;5031287;28;20056;-75
2023/06/17 03:25:53;;;;;;;6.70;2.05;;;;;;;15.04;100.00;101116.59;5040735;28;20053;-75
2023/06/17 03:28:20;;;;;;;5.88;1.98;;;;;;;15.04;100.00;101112.16;5034955;28;20052;-74
2023/06/17 03:30:46;;;;;;;8.07;2.83;;;;;;;14.69;100.00;101111.28;5030019;28;20479;-74
2023/06/17 03:33:14;;;;;;;6.30;2.38;;;;;;;14.74;100.00;101107.50;5046451;28;20048;-74
2023/06/17 03:35:41;;;;;;;7.28;2.50;;;;;;;14.85;100.00;101120.13;5030439;28;20056;-74
2023/06/17 03:38:09;;;;;;;5.55;2.20;;;;;;;14.86;100.00;101119.22;5045586;28;20160;-75
2023/06/17 03:40:36;;;;;;;7.13;2.63;;;;;;;15.06;100.00;101115.56;5047830;28;20422;-75
2023/06/17 03:43:03;;;;;;;6.50;2.13;;;;;;;15.12;100.00;101115.28;5042481;28;20536;-75
2023/06/17 03:45:30;;;;;;;6.28;2.30;;;;;;;14.80;100.00;101111.59;5021965;28;20658;-75
2023/06/17 03:47:58;;;;;;;7.28;2.83;;;;;;;14.70;100.00;101124.38;5043766;28;20053;-75
2023/06/17 03:50:26;;;;;;;10.85;2.67;;;;;;;14.65;100.00;101120.28;5048318;28;20103;-75
2023/06/17 03:52:53;;;;;;;6.20;2.22;;;;;;;14.70;100.00;101099.81;5043943;28;20059;-75
2023/06/17 03:55:19;;;;;;;6.30;2.28;;;;;;;15.05;100.00;101121.81;5031894;28;20045;-75
2023/06/17 03:57:46;;;;;;;6.40;2.45;;;;;;;14.86;100.00;101113.09;5030628;28;20554;-75
2023/06/17 04:00:15;;;;;;;6.32;2.30;;;;;;;14.70;100.00;101115.63;5029590;28;20363;-74
2023/06/17 04:02:45;;;;;;;6.22;2.38;;;;;;;14.70;100.00;101103.31;5040997;28;20123;-75
2023/06/17 04:05:13;;;;;;;6.65;2.33;;;;;;;14.87;100.00;101117.44;5042717;28;20141;-75
2023/06/17 04:07:40;;;;;;;8.20;2.33;;;;;;;14.72;100.00;101096.16;5050676;28;20047;-75
2023/06/17 04:10:08;;;;;;;5.85;2.15;;;;;;;14.83;100.00;101127.28;5042108;28;20095;-75
2023/06/17 04:12:41;;;;;;;7.40;2.63;;;;;;;15.27;100.00;101118.91;5040423;28;20470;-75
2023/06/17 04:15:08;;;;;;;7.13;2.38;;;;;;;16.10;100.00;101103.16;5032312;28;20136;-75
2023/06/17 04:17:38;;;;;;;6.40;2.42;;;;;;;16.86;100.00;101100.63;5047992;28;20087;-75
2023/06/17 04:20:10;;;;;;;9.25;2.85;;;;;;;17.08;100.00;101116.09;5044398;28;20092;-75
2023/06/17 04:22:39;;;;;;;6.90;2.57;;;;;;;17.37;100.00;101099.41;5031568;28;20622;-75
2023/06/17 04:25:08;;;;;;;7.65;2.50;;;;;;;17.80;100.00;101102.09;5032559;28;20260;-75
2023/06/17 04:27:36;;;;;;;6.85;2.60;;;;;;;17.92;100.00;101108.44;5031366;28;20055;-75
2023/06/17 04:30:05;;;;;;;6.60;2.17;;;;;;;18.05;100.00;101087.34;5050080;28;20131;-75
2023/06/17 04:32:34;;;;;;;10.55;2.75;;;;;;;18.35;100.00;101100.44;5035669;28;20144;-74
2023/06/17 04:35:04;;;;;;;9.55;2.65;;;;;;;18.48;100.00;101093.38;5032490;28;20493;-74
2023/06/17 04:37:32;;;;;;;7.15;2.40;;;;;;;18.70;100.00;101094.63;5036517;28;20057;-75
2023/06/17 04:39:59;;;;;;;6.90;2.58;;;;;;;18.70;100.00;101090.16;5050242;28;20045;-75
2023/06/17 04:42:27;;;;;;;5.82;2.17;;;;;;;19.01;100.00;101072.22;5031379;28;20619;-76
2023/06/17 04:44:54;;;;;;;4.97;1.90;;;;;;;19.38;100.00;101068.84;5024234;28;20122;-76
2023/06/17 04:47:21;;;;;;;6.20;2.30;;;;;;;19.25;100.00;101082.13;5048913;28;20062;-76
2023/06/17 04:49:51;;;;;;;5.68;2.05;;;;;;;19.28;100.00;101073.94;5048088;28;20068;-76
2023/06/17 04:52:24;;;;;;;7.28;2.67;;;;;;;19.24;100.00;101075.13;5023357;28;20103;-76
2023/06/17 04:54:51;;;;;;;6.25;2.30;;;;;;;19.49;100.00;101075.09;5031602;28;20089;-75
2023/06/17 04:57:18;;;;;;;8.23;2.47;;;;;;;19.04;100.00;101066.72;5034746;28;20076;-75
2023/06/17 04:59:45;;;;;;;7.47;2.40;;;;;;;17.71;100.00;101061.16;5039389;28;20067;-75
2023/06/17 05:02:13;;;;;;;7.60;2.33;;;;;;;17.65;100.00;101072.97;5038830;28;20051;-76
2023/06/17 05:04:40;;;;;;;7.25;2.28;;;;;;;17.11;100.00;101074.53;5034335;28;20051;-75
2023/06/17 05:07:07;;;;;;;13.20;2.47;;;;;;;17.01;100.00;101071.56;5021872;28;20144;-74
2023/06/17 05:09:34;;;;;;;6.00;2.10;;;;;;;17.33;100.00;101072.28;5039921;28;20055;-75
2023/06/17 05:12:01;;;;;;;6.72;2.30;;;;;;;17.09;100.00;101074.63;5049097;28;20544;-75
2023/06/17 05:14:27;;;;;;;7.43;2.55;;;;;;;17.06;100.00;101066.88;5037364;28;20041;-75
2023/06/17 05:16:54;;;;;;;6.63;2.47;;;;;;;17.09;100.00;101069.34;5029724;28;20049;-74
2023/06/17 05:19:21;;;;;;;8.25;2.60;;;;;;;17.19;100.00;101065.19;5034647;28;20040;-75
2023/06/17 05:21:48;;;;;;;5.95;2.20;;;;;;;18.45;100.00;101066.19;5024565;28;20053;-75
2023/06/17 05:24:14;;;;;;;6.35;2.08;;;;;;;19.26;100.00;101065.22;5034579;28;20511;-75
2023/06/17 05:26:41;;;;;;;6.60;2.30;;;;;;;19.67;100.00;101061.50;5037711;28;20052;-74
2023/06/17 05:29:08;;;;;;;7.22;2.47;;;;;;;20.08;100.00;101071.84;5036236;28;20085;-75
2023/06/17 05:31:35;;;;;;;7.55;2.47;;;;;;;20.17;100.00;101074.78;5027153;28;20052;-75
2023/06/17 05:34:01;;;;;;;6.45;2.45;;;;;;;20.28;100.00;101050.94;5014056;28;20403;-75
2023/06/17 05:36:28;;;;;;;9.43;2.60;;;;;;;20.44;100.00;101064.78;5021366;28;20041;-75
2023/06/17 05:38:55;;;;;;;7.55;2.95;;;;;;;20.38;100.00;101075.91;5029175;28;20052;-74
2023/06/17 05:41:22;;;;;;;7.07;2.30;;;;;;;20.41;100.00;101074.81;5015084;28;20088;-74
2023/06/17 05:43:49;;;;;;;8.75;2.60;;;;;;;20.29;100.00;101088.06;5018544;28;20049;-76
2023/06/17 05:46:16;;;;;;;10.88;3.13;;;;;;;20.39;100.00;101068.75;5024768;28;20061;-76
2023/06/17 05:48:42;;;;;;;7.47;2.13;;;;;;;20.76;100.00;101071.38;5029050;28;20041;-74
2023/06/17 05:51:09;;;;;;;10.48;3.00;;;;;;;20.95;100.00;101077.00;5023232;28;20070;-76
2023/06/17 05:53:36;;;;;;;8.23;2.90;;;;;;;21.14;100.00;101070.25;5019532;28;20423;-75
2023/06/17 05:56:07;;;;;;;8.20;3.00;;;;;;;21.09;100.00;101077.75;5031435;28;20053;-75
2023/06/17 05:58:34;;;;;;;8.63;2.83;;;;;;;21.12;100.00;101082.84;5022854;28;20049;-75
2023/06/17 06:01:02;;;;;;;7.15;2.78;;;;;;;21.33;100.00;101081.19;5026323;28;20472;-75
2023/06/17 06:03:29;;;;;;;7.55;2.63;;;;;;;21.54;100.00;101078.69;5028695;28;20046;-75
2023/06/17 06:05:56;;;;;;;6.85;2.50;;;;;;;21.98;100.00;101084.13;5010294;28;20049;-75
2023/06/17 06:08:22;;;;;;;10.93;3.22;;;;;;;22.11;100.00;101074.16;5037078;28;20045;-76
2023/06/17 06:10:49;;;;;;;8.15;3.05;;;;;;;22.23;100.00;101077.66;5021491;28;20491;-76
2023/06/17 06:13:16;;;;;;;7.22;2.60;;;;;;;22.62;100.00;101085.22;5021051;28;20049;-76
2023/06/17 06:15:42;;;;;;;8.50;2.58;;;;;;;22.39;100.00;101077.28;5018731;28;20050;-75
2023/06/17 06:18:09;;;;;;;10.38;2.78;;;;;;;22.45;100.00;101082.13;5031959;28;20056;-76
2023/06/17 06:20:36;;;;;;;6.80;2.53;;;;;;;23.31;100.00;101088.25;5027348;28;20053;-76
2023/06/17 06:23:03;;;;;;;6.85;2.70;;;;;;;23.15;100.00;101082.53;5031581;28;20060;-75
2023/06/17 06:25:29;;;;;;;8.18;2.90;;;;;;;23.01;100.00;101089.00;5024353;28;20140;-75
2023/06/17 06:27:58;;;;;;;7.78;2.67;;;;;;;23.11;100.00;101086.47;5029030;28;20049;-76
2023/06/17 06:30:25;;;;;;;7.10;2.60;;;;;;;23.28;100.00;101085.88;5025140;28;20042;-75
2023/06/17 06:32:52;;;;;;;6.63;2.40;;;;;;;23.00;100.00;101074.00;5028844;28;20128;-75
2023/06/17 06:35:19;;;;;;;7.50;3.00;;;;;;;23.34;100.00;101084.47;5020231;28;20449;-75
2023/06/17 06:37:45;;;;;;;7.43;2.80;;;;;;;23.48;100.00;101068.09;5021473;28;20054;-75
2023/06/17 06:40:13;;;;;;;8.10;3.30;;;;;;;23.62;100.00;101079.38;5023367;28;20053;-76
2023/06/17 06:42:39;;;;;;;6.60;2.60;;;;;;;24.22;100.00;101084.81;5026226;28;20137;-75
2023/06/17 06:45:07;;;;;;;7.75;2.53;;;;;;;24.38;100.00;101084.28;5017226;28;20049;-76
2023/06/17 06:47:33;;;;;;;8.80;3.30;;;;;;;24.40;100.00;101074.25;5027845;28;20133;-76
2023/06/17 06:50:00;;;;;;;9.98;4.10;;;;;;;24.61;100.00;101083.06;5044656;28;20315;-75
2023/06/17 06:52:27;;;;;;;8.18;3.17;;;;;;;24.61;100.00;101074.16;5027697;28;20057;-76
2023/06/17 06:54:54;;;;;;;8.38;3.67;;;;;;;24.49;100.00;101081.47;5024346;28;20050;-76
2023/06/17 06:57:21;;;;;;;9.00;3.60;;;;;;;24.90;100.00;101084.03;5026146;28;20128;-76
2023/06/17 06:59:47;;;;;;;11.20;4.28;;;;;;;24.80;100.00;101076.00;5022535;28;20080;-76
2023/06/17 07:02:17;;;;;;;10.23;3.50;;;;;;;24.92;100.00;101082.91;5029812;28;20053;-76
2023/06/17 07:04:45;;;;;;;8.18;3.00;;;;;;;25.09;100.00;101084.00;5031527;28;20063;-76
2023/06/17 07:07:12;;;;;;;8.48;3.35;;;;;;;25.32;100.00;101089.91;5033588;28;20046;-75
2023/06/17 07:09:39;;;;;;;9.35;3.55;;;;;;;25.63;100.00;101086.97;5026991;28;20742;-75
2023/06/17 07:12:06;;;;;;;8.90;3.80;;;;;;;25.64;100.00;101077.94;5020694;28;20159;-76
2023/06/17 07:14:34;;;;;;;9.45;4.18;;;;;;;25.28;100.00;101096.53;5023184;28;20104;-76
2023/06/17 07:17:00;;;;;;;9.98;4.32;;;;;;;25.31;100.00;101087.38;5029109;28;20046;-76
2023/06/17 07:19:27;;;;;;;9.13;3.63;;;;;;;25.58;100.00;101074.00;5022653;28;20049;-76
2023/06/17 07:21:54;;;;;;;7.10;2.97;;;;;;;25.34;100.00;101089.78;5028036;28;20052;-76
2023/06/17 07:24:21;;;;;;;11.77;4.68;;;;;;;25.14;100.00;101089.78;5025900;28;20053;-76
2023/06/17 07:26:48;;;;;;;9.98;4.60;;;;;;;24.93;100.00;101086.41;5030107;28;20053;-76
2023/06/17 07:29:15;;;;;;;8.48;3.78;;;;;;;25.25;100.00;101083.44;5030476;28;20051;-76
2023/06/17 07:31:42;;;;;;;9.52;3.85;;;;;;;25.63;100.00;101103.06;5031293;28;20140;-76
2023/06/17 07:34:09;;;;;;;8.68;4.20;;;;;;;25.24;100.00;101102.31;5034624;28;20056;-76
2023/06/17 07:36:36;;;;;;;9.00;4.68;;;;;;;24.93;100.00;101102.47;5029456;28;20053;-76
2023/06/17 07:39:03;;;;;;;8.52;3.85;;;;;;;25.01;100.00;101100.78;5025004;28;20133;-76
2023/06/17 07:41:29;;;;;;;8.82;3.47;;;;;;;25.52;100.00;101100.56;5022330;28;20049;-75
2023/06/17 07:43:56;;;;;;;8.57;3.67;;;;;;;25.63;100.00;101100.38;5025704;28;20049;-76
2023/06/17 07:46:23;;;;;;;12.70;3.63;;;;;;;25.25;100.00;101104.88;5028514;28;20099;-76
2023/06/17 07:48:49;;;;;;;9.05;4.53;;;;;;;25.25;100.00;101107.56;5026881;28;20045;-76
2023/06/17 07:51:16;;;;;;;16.60;4.07;;;;;;;25.62;100.00;101095.16;5025885;28;20056;-76
2023/06/17 07:53:43;;;;;;;10.45;5.15;;;;;;;25.17;100.00;101104.72;5025314;28;20097;-76
2023/06/17 07:56:10;;;;;;;8.88;3.50;;;;;;;24.79;100.00;101120.69;5027217;28;20049;-76
2023/06/17 07:58:37;;;;;;;9.30;3.72;;;;;;;25.01;100.00;101108.81;5026459;28;20129;-75
2023/06/17 08:01:04;;;;;;;8.88;4.22;;;;;;;24.82;100.00;101112.38;5029434;28;20129;-76
2023/06/17 08:03:30;;;;;;;6.82;2.70;;;;;;;24.95;100.00;101111.25;5028890;28;20372;-76
2023/06/17 08:05:57;;;;;;;7.82;2.63;;;;;;;24.95;100.00;101098.69;5026201;28;20049;-76
2023/06/17 08:08:24;;;;;;;9.23;2.88;;;;;;;25.01;100.00;101105.31;5030462;28;20056;-75
2023/06/17 08:10:51;;;;;;;9.48;3.35;;;;;;;25.78;100.00;101092.69;5021453;28;20618;-76
2023/06/17 08:13:17;;;;;;;9.38;3.15;;;;;;;25.74;100.00;101102.84;5023744;28;20042;-76
2023/06/17 08:15:44;;;;;;;10.13;2.78;;;;;;;25.51;97.30;101107.75;5030133;28;20417;-76
2023/06/17 08:18:11;;;;;;;7.70;2.55;;;;;;;25.66;76.96;101102.78;5024992;28;20041;-76
2023/06/17 08:20:39;;;;;;;8.30;2.85;;;;;;;25.54;90.95;101087.84;5021723;28;20054;-77
2023/06/17 08:23:07;;;;;;;8.45;2.58;;;;;;;25.74;99.11;101110.06;5029257;28;20079;-76
2023/06/17 08:25:34;;;;;;;8.27;2.75;;;;;;;25.42;95.18;101103.28;5022211;28;20507;-76
2023/06/17 08:28:00;;;;;;;7.38;2.80;;;;;;;25.74;88.15;101099.34;5026273;28;20053;-76
2023/06/17 08:30:27;;;;;;;8.90;2.53;;;;;;;26.08;79.15;101105.00;5016079;28;20046;-76
2023/06/17 08:32:54;;;;;;;8.57;2.80;;;;;;;26.02;70.35;101108.28;5029759;28;20140;-76
2023/06/17 08:35:21;;;;;;;7.97;3.08;;;;;;;25.17;77.88;101086.78;5025772;28;20398;-76
2023/06/17 08:37:47;;;;;;;10.02;3.00;;;;;;;25.56;82.55;101107.31;5026595;28;20053;-77
2023/06/17 08:40:17;;;;;;;7.25;2.50;;;;;;;25.72;87.64;101093.28;5019804;28;20056;-76
2023/06/17 08:42:45;;;;;;;6.13;2.25;;;;;;;25.87;84.83;101086.44;5025318;28;20084;-77
2023/06/17 08:45:12;;;;;;;7.75;2.78;;;;;;;25.42;87.11;101100.59;5017788;28;20551;-76
2023/06/17 08:47:39;;;;;;;8.85;3.35;;;;;;;25.52;87.35;101096.03;5017016;28;20049;-77
2023/06/17 08:50:07;;;;;;;7.07;2.58;;;;;;;25.07;87.41;101085.97;5038256;28;20037;-75
2023/06/17 08:52:36;;;;;;;7.75;3.03;;;;;;;24.94;95.06;101088.94;5019338;28;20088;-76
2023/06/17 08:55:03;;;;;;;7.03;2.67;;;;;;;25.47;83.94;101092.97;5019262;28;20494;-75
2023/06/17 08:57:31;;;;;;;8.05;3.10;;;;;;;25.14;86.56;101086.25;5010672;28;20054;-76
2023/06/17 08:59:58;;;;;;;7.18;2.75;;;;;;;24.93;87.06;101089.09;5021613;28;20080;-76
2023/06/17 09:02:26;;;;;;;7.85;2.90;;;;;;;24.74;87.23;101090.81;5017847;28;20056;-76
2023/06/17 09:04:54;;;;;;;7.97;2.72;;;;;;;25.30;89.39;101093.72;5018703;28;20050;-76
2023/06/17 09:07:21;;;;;;;9.27;2.85;;;;;;;25.53;87.47;101089.72;5023297;28;20049;-76
2023/06/17 09:09:53;;;;;;;9.35;3.58;;;;;;;25.69;82.86;101086.41;5026456;28;20041;-76
2023/06/17 09:12:24;;;;;;;7.95;2.97;;;;;;;24.99;81.27;101088.53;5016392;28;20144;-76
2023/06/17 09:14:54;;;;;;;10.52;2.67;;;;;;;24.86;86.87;101087.97;5024779;28;20136;-75
2023/06/17 09:17:32;;;;;;;7.95;2.60;;;;;;;24.78;74.78;101086.84;5026987;28;20049;-76
2023/06/17 09:20:13;;;;;;;8.55;2.90;;;;;;;24.85;80.61;101079.09;5017633;28;20553;-76
2023/06/17 09:22:42;;;;;;;8.48;3.10;;;;;;;24.71;74.05;101085.72;5017802;28;20056;-76
2023/06/17 09:25:14;;;;;;;8.85;3.13;;;;;;;24.86;70.72;101067.41;5029461;28;20552;-76
2023/06/17 09:27:52;;;;;;;8.00;2.22;;;;;;;24.88;66.38;101070.78;5022867;28;20108;-76
2023/06/17 09:30:43;;;;;;;9.32;2.33;;;;;;;25.33;72.81;101072.81;5024071;28;20041;-76
2023/06/17 09:33:21;;;;;;;7.30;2.60;;;;;;;25.22;73.79;101072.97;5020701;28;20049;-76
2023/06/17 09:35:59;;;;;;;7.72;2.88;;;;;;;25.22;66.98;101062.25;5025455;28;20046;-76
2023/06/17 09:38:28;;;;;;;7.13;2.53;;;;;;;24.51;61.89;101066.13;5020504;28;20069;-76
2023/06/17 09:40:55;;;;;;;7.78;2.50;;;;;;;25.10;63.61;101061.56;5023122;28;20049;-75
2023/06/17 09:43:27;;;;;;;7.90;2.88;;;;;;;24.95;70.46;101071.91;5023520;28;20072;-75
2023/06/17 09:45:56;;;;;;;10.25;2.50;;;;;;;25.05;75.44;101071.03;5022861;28;20053;-76
2023/06/17 09:48:24;;;;;;;8.93;2.95;;;;;;;25.05;72.03;101066.53;5023385;28;20056;-76
2023/06/17 09:50:55;;;;;;;9.43;3.10;;;;;;;24.60;79.72;101062.63;5019366;28;20057;-76
2023/06/17 09:53:29;;;;;;;7.45;2.83;;;;;;;24.49;78.17;101072.59;5023424;28;20053;-76
2023/06/17 09:55:59;;;;;;;7.78;2.63;;;;;;;24.76;70.68;101067.41;5037433;28;20422;-76
2023/06/17 09:58:30;;;;;;;7.22;2.72;;;;;;;25.02;82.65;101067.66;5020257;28;20060;-76
2023/06/17 10:01:00;;;;;;;9.27;3.22;;;;;;;24.92;82.10;101066.81;5025346;28;20468;-74
2023/06/17 10:03:27;;;;;;;7.97;2.63;;;;;;;24.88;86.15;101070.78;5021051;28;20054;-76
2023/06/17 10:06:00;;;;;;;7.93;2.58;;;;;;;25.05;83.80;101068.34;5029914;28;20079;-76
2023/06/17 10:08:29;;;;;;;7.32;3.00;;;;;;;25.29;90.66;101070.59;5031621;28;20055;-76
2023/06/17 10:11:00;;;;;;;7.40;3.03;;;;;;;25.70;85.93;101069.28;5034840;28;20132;-76
2023/06/17 10:13:30;;;;;;;9.05;3.33;;;;;;;24.37;84.46;101067.38;5029826;28;20069;-76
2023/06/17 10:15:59;;;;;;;9.10;3.13;;;;;;;24.83;90.58;101040.91;5031623;28;20151;-76
2023/06/17 10:18:29;;;;;;;9.43;3.30;;;;;;;24.62;93.70;101051.78;5030390;28;20566;-76
2023/06/17 10:20:57;;;;;;;9.80;3.17;;;;;;;24.61;100.00;101068.81;5038587;28;20059;-76
2023/06/17 10:23:28;;;;;;;7.55;3.35;;;;;;;24.30;89.51;101055.53;5029034;28;20072;-76
2023/06/17 10:25:54;;;;;;;8.80;3.10;;;;;;;23.99;100.00;101058.31;5030388;28;20080;-76
2023/06/17 10:28:21;;;;;;;8.82;3.25;;;;;;;23.79;100.00;101051.19;5027721;28;20074;-76
2023/06/17 10:30:51;;;;;;;8.40;3.08;;;;;;;24.38;100.00;101052.16;5011749;28;20049;-76
2023/06/17 10:33:29;;;;;;;7.60;2.95;;;;;;;24.12;100.00;101062.56;5019404;28;20544;-74
2023/06/17 10:36:07;;;;;;;7.50;2.90;;;;;;;24.35;100.00;101061.31;5027953;28;20069;-73
2023/06/17 10:38:34;;;;;;;10.70;2.75;;;;;;;24.52;100.00;101042.88;5028686;28;20053;-74
2023/06/17 10:41:01;;;;;;;10.38;3.67;;;;;;;24.62;93.20;101062.50;5035423;28;20054;-74
2023/06/17 10:43:36;;;;;;;7.63;3.17;;;;;;;24.53;94.63;101055.28;5031980;28;20443;-73
2023/06/17 10:46:03;;;;;;;7.20;2.70;;;;;;;24.36;90.61;101049.63;5021825;28;20427;-76
2023/06/17 10:48:33;;;;;;;8.40;3.10;;;;;;;24.72;88.67;101051.75;5028690;28;20079;-76
2023/06/17 10:51:02;;;;;;;10.18;3.25;;;;;;;24.40;87.72;101048.38;5027855;28;20487;-76
2023/06/17 10:53:36;;;;;;;8.63;3.15;;;;;;;25.25;76.48;101051.28;5028479;28;20506;-76
2023/06/17 10:56:05;;;;;;;7.97;3.25;;;;;;;24.87;67.47;101041.47;5021537;28;20064;-76
2023/06/17 10:58:35;;;;;;;10.45;3.30;;;;;;;24.49;72.92;101035.97;5024245;28;20058;-76
2023/06/17 11:01:06;;;;;;;8.20;2.65;;;;;;;24.87;75.64;101042.31;5024989;28;20057;-76
2023/06/17 11:03:34;;;;;;;7.53;3.00;;;;;;;24.87;65.55;101034.28;5017983;28;20450;-77
2023/06/17 11:06:06;;;;;;;10.15;3.38;;;;;;;25.06;74.53;101022.69;5022276;28;20487;-75
2023/06/17 11:08:35;;;;;;;10.85;3.30;;;;;;;24.96;70.49;101029.88;5025067;28;20053;-75
2023/06/17 11:11:16;;;;;;;13.50;3.60;;;;;;;24.69;80.90;101030.66;5031274;28;20173;-76
2023/06/17 11:13:47;;;;;;;8.23;2.78;;;;;;;24.92;73.46;101033.84;5020631;28;20557;-75
2023/06/17 11:16:14;;;;;;;10.52;3.00;;;;;;;24.62;78.72;101036.56;5026113;28;20581;-75
2023/06/17 11:18:42;;;;;;;12.30;3.15;;;;;;;24.51;78.58;101025.97;5016012;28;20119;-75
2023/06/17 11:21:09;;;;;;;7.85;2.72;;;;;;;25.14;73.21;101030.84;5026372;28;20048;-75
2023/06/17 11:23:39;;;;;;;8.82;2.92;;;;;;;24.06;77.61;101027.38;5018065;28;20132;-75